Time;durP1;ratioP1;P1;durP2;ratioP2;P2;SDS_P1;SDS_P2;PMS_P1;PMS_P2;Temp;Humidity;BMP_temperature;BMP_pressure;BME280_temperature;BME280_humidity;BME280_pressure;Samples;Min_cycle;Max_cycle;Signal;HPM_P1;HPM_P2
2023/03/16 00:00:42;;;;;;;8.10;3.80;;;2.70;99.90;;;;;;4955600;28;20421;-76
2023/03/16 00:03:09;;;;;;;9.48;4.47;;;2.70;99.90;;;;;;4978630;28;20148;-75
2023/03/16 00:05:35;;;;;;;6.70;3.47;;;2.70;99.90;;;;;;4954948;28;20027;-75
2023/03/16 00:08:01;;;;;;;8.18;3.85;;;2.70;99.90;;;;;;4954950;28;20102;-75
2023/03/16 00:10:26;;;;;;;4.60;3.20;;;2.70;99.90;;;;;;4955325;28;20038;-74
2023/03/16 00:12:53;;;;;;;8.15;3.50;;;2.60;99.90;;;;;;4952842;28;20078;-76
2023/03/16 00:15:19;;;;;;;6.28;3.47;;;2.60;99.90;;;;;;4954443;28;20110;-75
2023/03/16 00:17:47;;;;;;;10.52;4.30;;;2.60;99.90;;;;;;4954596;28;20027;-75
2023/03/16 00:20:15;;;;;;;8.18;3.78;;;2.60;99.90;;;;;;4955369;28;20038;-75
2023/03/16 00:22:41;;;;;;;9.10;4.50;;;2.60;99.90;;;;;;4954670;28;20027;-76
2023/03/16 00:25:08;;;;;;;8.60;3.78;;;2.60;99.90;;;;;;4954362;28;20023;-76
2023/03/16 00:27:34;;;;;;;7.72;3.83;;;2.50;99.90;;;;;;4953453;29;20086;-76
2023/03/16 00:30:02;;;;;;;7.55;3.85;;;2.60;99.90;;;;;;4954659;28;20035;-75
2023/03/16 00:32:36;;;;;;;6.90;3.53;;;2.50;99.90;;;;;;4953156;28;20238;-75
2023/03/16 00:35:04;;;;;;;5.78;3.75;;;2.50;99.90;;;;;;4954161;28;20077;-74
2023/03/16 00:37:31;;;;;;;6.35;3.78;;;2.50;99.90;;;;;;4953726;28;20050;-75
2023/03/16 00:39:57;;;;;;;8.70;3.70;;;2.50;99.90;;;;;;4954258;28;20024;-75
2023/03/16 00:42:28;;;;;;;9.48;4.22;;;2.50;99.90;;;;;;4954162;28;20027;-74
2023/03/16 00:44:57;;;;;;;8.20;3.58;;;2.50;99.90;;;;;;4954043;28;20027;-75
2023/03/16 00:47:25;;;;;;;8.35;3.28;;;2.50;99.90;;;;;;4964118;28;20392;-75
2023/03/16 00:49:51;;;;;;;5.90;3.45;;;2.50;99.90;;;;;;4973269;28;20121;-76
2023/03/16 00:52:17;;;;;;;10.57;3.90;;;2.50;99.90;;;;;;4973416;28;20059;-76
2023/03/16 00:54:44;;;;;;;7.38;4.07;;;2.50;99.90;;;;;;4959618;28;20445;-76
2023/03/16 00:57:12;;;;;;;7.25;4.32;;;2.40;99.90;;;;;;4965102;28;20030;-76
2023/03/16 00:59:38;;;;;;;10.15;5.10;;;2.50;99.90;;;;;;4969561;28;20020;-75
2023/03/16 01:02:06;;;;;;;9.25;4.30;;;2.40;99.90;;;;;;4971630;28;20078;-75
2023/03/16 01:04:33;;;;;;;9.10;5.40;;;2.50;99.90;;;;;;4973128;28;20471;-75
2023/03/16 01:06:59;;;;;;;9.48;5.63;;;2.50;99.90;;;;;;4973115;28;20419;-76
2023/03/16 01:09:24;;;;;;;9.30;5.78;;;2.50;99.90;;;;;;4973189;28;20034;-75
2023/03/16 01:11:53;;;;;;;10.13;5.53;;;2.50;99.90;;;;;;4987945;28;20422;-76
2023/03/16 01:14:20;;;;;;;8.73;5.68;;;2.50;99.90;;;;;;4967149;28;20053;-75
2023/03/16 01:16:45;;;;;;;10.15;6.10;;;2.50;99.90;;;;;;4972452;28;20533;-76
2023/03/16 01:19:12;;;;;;;11.52;6.50;;;2.50;99.90;;;;;;4973065;28;20080;-76
2023/03/16 01:21:39;;;;;;;11.95;6.68;;;2.50;99.90;;;;;;4973003;28;20019;-75
2023/03/16 01:24:05;;;;;;;9.35;6.30;;;2.50;99.90;;;;;;4972993;28;20085;-75
2023/03/16 01:26:31;;;;;;;12.40;7.32;;;2.50;99.90;;;;;;4972920;28;20400;-75
2023/03/16 01:28:56;;;;;;;13.10;6.63;;;2.50;99.90;;;;;;4972784;28;20031;-74
2023/03/16 01:31:22;;;;;;;11.18;6.18;;;2.50;99.90;;;;;;4973426;28;20043;-74
2023/03/16 01:33:48;;;;;;;14.15;6.55;;;2.50;99.90;;;;;;4972993;28;20022;-74
2023/03/16 01:36:17;;;;;;;12.85;7.20;;;2.60;99.90;;;;;;4972353;28;20031;-74
2023/03/16 01:38:42;;;;;;;10.60;6.97;;;2.50;99.90;;;;;;4972620;28;20022;-74
2023/03/16 01:41:09;;;;;;;14.95;6.85;;;2.50;99.90;;;;;;4971663;28;20031;-74
2023/03/16 01:43:37;;;;;;;12.95;7.32;;;2.60;99.90;;;;;;4972864;28;20570;-74
2023/03/16 01:46:06;;;;;;;11.93;6.68;;;2.60;99.90;;;;;;4971495;28;20031;-74
2023/03/16 01:48:43;;;;;;;14.27;7.38;;;2.60;99.90;;;;;;4966115;28;20036;-74
2023/03/16 01:51:22;;;;;;;10.85;6.18;;;2.60;99.90;;;;;;4969096;28;20055;-74
2023/03/16 01:53:52;;;;;;;12.95;7.00;;;2.60;99.90;;;;;;4972328;28;20031;-74
2023/03/16 01:56:23;;;;;;;14.05;7.10;;;2.60;99.90;;;;;;4977461;28;20102;-74
2023/03/16 01:58:51;;;;;;;10.98;6.85;;;2.50;99.90;;;;;;4982287;28;20087;-75
2023/03/16 02:01:17;;;;;;;10.02;6.75;;;2.60;99.90;;;;;;4975881;28;20019;-74
2023/03/16 02:03:43;;;;;;;11.48;5.63;;;2.60;99.90;;;;;;4973057;28;20042;-74
2023/03/16 02:06:21;;;;;;;13.32;7.40;;;2.50;99.90;;;;;;4969067;28;20515;-74
2023/03/16 02:08:48;;;;;;;12.65;6.30;;;2.50;99.90;;;;;;4956901;28;20047;-74
2023/03/16 02:11:18;;;;;;;12.77;6.55;;;2.50;99.90;;;;;;4976269;28;20447;-74
2023/03/16 02:13:46;;;;;;;10.75;6.63;;;2.50;99.90;;;;;;4976132;28;20405;-75
2023/03/16 02:16:18;;;;;;;10.65;6.75;;;2.50;99.90;;;;;;4976331;28;20027;-74
2023/03/16 02:18:47;;;;;;;12.40;6.45;;;2.50;99.90;;;;;;4976376;28;20027;-74
2023/03/16 02:21:19;;;;;;;12.80;7.60;;;2.50;99.90;;;;;;4976044;28;20033;-75
2023/03/16 02:23:46;;;;;;;11.38;7.07;;;2.50;99.90;;;;;;4976058;28;20458;-75
2023/03/16 02:26:14;;;;;;;13.30;6.60;;;2.50;99.90;;;;;;4975813;28;20686;-75
2023/03/16 02:29:05;;;;;;;9.65;5.80;;;2.50;99.90;;;;;;4964881;28;20031;-75
2023/03/16 02:31:31;;;;;;;9.60;6.00;;;2.50;99.90;;;;;;4970537;28;20437;-75
2023/03/16 02:33:58;;;;;;;11.65;6.13;;;2.50;99.90;;;;;;4975714;28;20034;-75
2023/03/16 02:36:24;;;;;;;9.52;5.63;;;2.50;99.90;;;;;;4975857;28;20461;-75
2023/03/16 02:38:49;;;;;;;9.68;6.22;;;2.40;99.90;;;;;;4975777;28;20030;-75
2023/03/16 02:41:20;;;;;;;13.15;6.68;;;2.40;99.90;;;;;;4976094;28;20022;-75
2023/03/16 02:43:52;;;;;;;11.57;6.13;;;2.40;99.90;;;;;;4976041;28;20109;-75
2023/03/16 02:46:20;;;;;;;11.13;6.47;;;2.50;99.90;;;;;;4975653;28;20030;-74
2023/03/16 02:48:51;;;;;;;10.10;6.13;;;2.40;99.90;;;;;;4974981;28;20134;-74
2023/03/16 02:51:17;;;;;;;13.65;6.05;;;2.40;99.90;;;;;;4974818;28;20031;-75
2023/03/16 02:53:43;;;;;;;11.65;6.75;;;2.40;99.90;;;;;;4973585;28;20487;-75
2023/03/16 02:56:08;;;;;;;10.27;6.28;;;2.40;99.90;;;;;;4974486;28;20038;-75
2023/03/16 02:58:34;;;;;;;11.88;6.43;;;2.40;99.90;;;;;;4975896;28;20025;-74
2023/03/16 03:01:00;;;;;;;11.48;7.00;;;2.30;99.90;;;;;;4974054;28;20157;-75
2023/03/16 03:03:26;;;;;;;13.50;6.15;;;2.30;99.90;;;;;;4975976;28;20503;-75
2023/03/16 03:05:51;;;;;;;10.82;6.15;;;2.30;99.90;;;;;;4975602;28;20064;-75
2023/03/16 03:08:20;;;;;;;10.82;5.93;;;2.30;99.90;;;;;;4975522;28;20062;-75
2023/03/16 03:10:46;;;;;;;10.43;6.35;;;2.30;99.90;;;;;;4975696;28;20054;-75
2023/03/16 03:13:11;;;;;;;11.88;7.22;;;2.30;99.90;;;;;;4975732;28;20031;-76
2023/03/16 03:15:37;;;;;;;10.35;6.28;;;2.30;99.90;;;;;;4973894;28;20030;-76
2023/03/16 03:18:03;;;;;;;11.73;5.82;;;2.30;99.90;;;;;;4975642;28;20023;-76
2023/03/16 03:20:29;;;;;;;8.63;5.38;;;2.30;99.90;;;;;;4974026;28;20046;-75
2023/03/16 03:22:54;;;;;;;12.13;6.38;;;2.30;99.90;;;;;;4975084;28;20039;-75
2023/03/16 03:25:21;;;;;;;12.00;5.75;;;2.30;99.90;;;;;;4972291;28;20038;-74
2023/03/16 03:27:49;;;;;;;13.50;6.45;;;2.20;99.90;;;;;;4965647;28;20027;-75
2023/03/16 03:30:20;;;;;;;10.20;6.07;;;2.20;99.90;;;;;;4985143;23;20074;-78
2023/03/16 03:32:47;;;;;;;11.77;5.93;;;2.20;99.90;;;;;;4967926;28;20039;-77
2023/03/16 03:35:14;;;;;;;11.80;5.90;;;2.20;99.90;;;;;;4969220;28;20362;-77
2023/03/16 03:37:41;;;;;;;10.57;6.32;;;2.10;99.90;;;;;;4966366;28;20106;-79
2023/03/16 03:40:09;;;;;;;11.10;5.93;;;2.00;99.90;;;;;;4965300;28;20455;-77
2023/03/16 03:42:35;;;;;;;10.85;5.88;;;2.00;99.90;;;;;;4977539;28;20097;-76
2023/03/16 03:45:01;;;;;;;14.30;6.88;;;2.00;99.90;;;;;;4962414;28;20032;-77
2023/03/16 03:47:27;;;;;;;15.02;6.40;;;2.00;99.90;;;;;;4964175;28;20035;-77
2023/03/16 03:49:53;;;;;;;12.85;5.97;;;1.90;99.90;;;;;;4966555;28;20031;-77
2023/03/16 03:52:18;;;;;;;11.43;6.93;;;1.90;99.90;;;;;;4964321;28;20522;-78
2023/03/16 03:54:44;;;;;;;12.65;6.65;;;1.90;99.90;;;;;;4963363;28;20033;-78
2023/03/16 03:57:10;;;;;;;13.23;6.65;;;1.90;99.90;;;;;;4969939;28;20097;-78
2023/03/16 03:59:41;;;;;;;12.27;7.40;;;1.90;99.90;;;;;;4966612;28;20058;-77
2023/03/16 04:02:07;;;;;;;11.95;6.93;;;1.80;99.90;;;;;;4963522;28;20030;-77
2023/03/16 04:04:33;;;;;;;12.80;6.82;;;1.70;99.90;;;;;;4967022;28;20041;-78
2023/03/16 04:06:59;;;;;;;10.93;6.68;;;1.70;99.90;;;;;;4967605;28;20019;-79
2023/03/16 04:09:25;;;;;;;11.82;6.53;;;1.70;99.90;;;;;;4968734;28;20475;-78
2023/03/16 04:11:50;;;;;;;17.55;6.93;;;1.70;99.90;;;;;;4965435;28;20132;-79
2023/03/16 04:14:16;;;;;;;13.88;7.40;;;1.70;99.90;;;;;;4969801;28;20027;-78
2023/03/16 04:16:43;;;;;;;15.13;7.20;;;1.60;99.90;;;;;;4969119;28;20073;-78
2023/03/16 04:19:10;;;;;;;14.40;7.57;;;1.60;99.90;;;;;;4966645;28;20129;-78
2023/03/16 04:21:37;;;;;;;13.98;7.78;;;1.60;99.90;;;;;;4980894;28;20033;-78
2023/03/16 04:24:04;;;;;;;15.18;8.65;;;1.70;99.90;;;;;;4965933;28;20026;-77
2023/03/16 04:26:31;;;;;;;18.48;7.55;;;1.60;99.90;;;;;;4969358;28;20046;-78
2023/03/16 04:28:57;;;;;;;14.38;7.15;;;1.70;99.90;;;;;;4963566;28;20042;-78
2023/03/16 04:31:23;;;;;;;11.63;6.95;;;1.70;99.90;;;;;;4962373;28;20117;-79
2023/03/16 04:33:48;;;;;;;13.20;8.10;;;1.60;99.90;;;;;;4964672;28;20122;-77
2023/03/16 04:36:14;;;;;;;12.40;8.18;;;1.60;99.90;;;;;;4961676;28;20085;-77
2023/03/16 04:38:40;;;;;;;13.70;7.93;;;1.60;99.90;;;;;;4965179;28;20026;-77
2023/03/16 04:41:07;;;;;;;12.48;7.38;;;1.50;99.90;;;;;;4963771;28;20073;-77
2023/03/16 04:43:33;;;;;;;14.57;7.68;;;1.50;99.90;;;;;;4964490;28;20112;-78
2023/03/16 04:46:03;;;;;;;10.98;7.30;;;1.50;99.90;;;;;;4967053;28;20030;-78
2023/03/16 04:48:29;;;;;;;12.48;7.57;;;1.40;99.90;;;;;;4961996;28;20034;-78
2023/03/16 04:50:55;;;;;;;11.82;7.22;;;1.40;99.90;;;;;;4966236;28;20023;-78
2023/03/16 04:53:20;;;;;;;13.88;7.78;;;1.40;99.90;;;;;;4966060;28;20455;-78
2023/03/16 04:55:46;;;;;;;14.40;8.07;;;1.30;99.90;;;;;;4961744;28;20038;-77
2023/03/16 04:58:15;;;;;;;12.65;7.60;;;1.30;99.90;;;;;;4965260;28;20034;-78
2023/03/16 05:00:40;;;;;;;11.48;7.20;;;1.30;99.90;;;;;;4963879;28;20034;-78
2023/03/16 05:03:09;;;;;;;14.25;8.10;;;1.20;99.90;;;;;;4966097;28;20027;-78
2023/03/16 05:05:36;;;;;;;11.40;7.65;;;1.20;99.90;;;;;;4964834;28;20117;-79
2023/03/16 05:08:04;;;;;;;13.38;8.40;;;1.10;99.90;;;;;;4964037;28;20027;-77
2023/03/16 05:10:31;;;;;;;11.95;7.18;;;1.10;99.90;;;;;;4963761;28;20122;-77
2023/03/16 05:12:56;;;;;;;12.18;7.03;;;1.10;99.90;;;;;;4967158;28;20031;-77
2023/03/16 05:15:22;;;;;;;14.65;7.70;;;1.00;99.90;;;;;;4965904;28;20049;-78
2023/03/16 05:17:48;;;;;;;14.13;8.13;;;0.90;99.90;;;;;;4962785;28;20127;-78
2023/03/16 05:20:14;;;;;;;13.15;8.45;;;0.90;99.90;;;;;;4966281;28;20564;-78
2023/03/16 05:22:41;;;;;;;13.52;7.50;;;0.90;99.90;;;;;;4965259;28;20031;-77
2023/03/16 05:25:07;;;;;;;11.05;7.45;;;0.90;99.90;;;;;;4964334;28;20031;-78
2023/03/16 05:27:34;;;;;;;14.20;7.78;;;0.80;99.90;;;;;;4962934;28;20034;-79
2023/03/16 05:30:00;;;;;;;13.63;8.07;;;0.80;99.90;;;;;;4963356;28;20038;-78
2023/03/16 05:32:26;;;;;;;11.20;6.78;;;0.70;99.90;;;;;;4965136;28;20101;-78
2023/03/16 05:34:52;;;;;;;11.98;7.20;;;0.80;99.90;;;;;;4970618;28;20436;-79
2023/03/16 05:37:18;;;;;;;16.48;7.82;;;0.80;99.90;;;;;;4964882;28;20106;-79
2023/03/16 05:39:43;;;;;;;9.40;6.65;;;0.70;99.90;;;;;;4965419;28;20026;-78
2023/03/16 05:42:09;;;;;;;14.43;7.30;;;0.60;99.90;;;;;;4969744;28;20117;-79
2023/03/16 05:44:35;;;;;;;13.60;7.35;;;0.60;99.90;;;;;;4972062;28;20090;-79
2023/03/16 05:47:01;;;;;;;11.77;6.82;;;0.50;99.90;;;;;;4985496;28;20025;-79
2023/03/16 05:49:27;;;;;;;13.07;7.55;;;0.50;99.90;;;;;;4993642;28;20050;-79
2023/03/16 05:51:53;;;;;;;17.38;7.57;;;0.50;99.90;;;;;;4991515;28;20019;-78
2023/03/16 05:54:19;;;;;;;13.05;6.80;;;0.50;99.90;;;;;;4990303;28;20038;-79
2023/03/16 05:56:44;;;;;;;12.98;7.57;;;0.50;99.90;;;;;;4980160;28;20019;-78
2023/03/16 05:59:10;;;;;;;18.50;8.18;;;0.50;99.90;;;;;;4968451;28;20023;-78
2023/03/16 06:01:36;;;;;;;18.38;8.38;;;0.40;99.90;;;;;;4969589;28;20454;-78
2023/03/16 06:04:04;;;;;;;15.63;7.85;;;0.40;99.90;;;;;;4974782;28;20598;-77
2023/03/16 06:06:30;;;;;;;14.75;7.57;;;0.40;99.90;;;;;;4970692;28;20027;-80
2023/03/16 06:08:55;;;;;;;15.65;8.45;;;0.40;99.90;;;;;;4968645;28;20037;-79
2023/03/16 06:11:21;;;;;;;13.50;8.27;;;0.50;99.90;;;;;;4970290;28;20078;-78
2023/03/16 06:13:47;;;;;;;15.70;8.05;;;0.50;99.90;;;;;;4971483;28;20479;-78
2023/03/16 06:16:13;;;;;;;14.73;8.15;;;0.50;99.90;;;;;;4973664;28;20554;-78
2023/03/16 06:18:40;;;;;;;17.90;8.45;;;0.50;99.90;;;;;;4971800;28;20388;-78
2023/03/16 06:21:06;;;;;;;18.17;9.57;;;0.50;99.90;;;;;;4972335;28;20031;-79
2023/03/16 06:23:32;;;;;;;17.25;9.65;;;0.60;99.90;;;;;;4969670;28;20030;-77
2023/03/16 06:25:59;;;;;;;17.15;9.73;;;0.60;99.90;;;;;;4971508;28;20031;-78
2023/03/16 06:28:25;;;;;;;14.65;8.88;;;0.50;99.90;;;;;;4962170;28;20085;-78
2023/03/16 06:30:55;;;;;;;14.65;8.75;;;0.50;99.90;;;;;;4966514;28;20031;-78
2023/03/16 06:33:20;;;;;;;15.18;8.50;;;0.50;99.90;;;;;;4966600;28;20026;-78
2023/03/16 06:35:47;;;;;;;15.93;9.80;;;0.50;99.90;;;;;;4964181;28;20024;-78
2023/03/16 06:38:13;;;;;;;15.95;9.02;;;0.50;99.90;;;;;;4963618;28;20101;-77
2023/03/16 06:40:40;;;;;;;18.35;9.25;;;0.50;99.90;;;;;;4961615;28;20026;-79
2023/03/16 06:43:06;;;;;;;16.67;9.32;;;0.50;99.90;;;;;;4965089;28;20043;-79
2023/03/16 06:45:31;;;;;;;13.95;8.25;;;0.60;99.90;;;;;;4973499;28;20053;-78
2023/03/16 06:47:57;;;;;;;16.02;9.30;;;0.60;99.90;;;;;;4965582;28;20468;-79
2023/03/16 06:50:22;;;;;;;13.55;8.77;;;0.70;99.90;;;;;;4966152;28;20039;-76
2023/03/16 06:52:48;;;;;;;16.73;9.35;;;0.70;99.90;;;;;;4964637;28;20035;-76
2023/03/16 06:55:14;;;;;;;14.68;8.50;;;0.80;99.90;;;;;;4965267;28;20026;-78
2023/03/16 06:57:43;;;;;;;19.02;9.07;;;0.80;99.90;;;;;;4965074;28;20042;-75
2023/03/16 07:00:12;;;;;;;15.50;8.52;;;0.90;99.90;;;;;;4967679;28;20027;-76
2023/03/16 07:02:42;;;;;;;19.40;9.73;;;0.90;99.90;;;;;;4964084;28;20019;-77
2023/03/16 07:05:12;;;;;;;19.98;9.63;;;1.00;99.90;;;;;;4969271;28;20026;-77
2023/03/16 07:07:41;;;;;;;14.60;8.95;;;1.00;99.90;;;;;;4969196;28;20630;-79
2023/03/16 07:10:14;;;;;;;16.38;8.88;;;1.10;99.90;;;;;;4968258;28;20120;-77
2023/03/16 07:12:41;;;;;;;17.50;10.30;;;1.20;99.90;;;;;;4964048;28;20039;-77
2023/03/16 07:15:07;;;;;;;16.63;9.02;;;1.30;99.90;;;;;;4984711;28;20026;-78
2023/03/16 07:17:33;;;;;;;18.45;9.40;;;1.40;99.90;;;;;;4991593;28;20430;-79
2023/03/16 07:19:59;;;;;;;18.33;10.27;;;1.50;99.90;;;;;;4963076;28;20126;-79
2023/03/16 07:22:25;;;;;;;19.48;10.93;;;1.50;99.90;;;;;;4967599;28;20037;-80
2023/03/16 07:24:55;;;;;;;19.02;10.43;;;1.60;99.90;;;;;;4962952;28;20055;-79
2023/03/16 07:27:22;;;;;;;19.05;10.77;;;1.60;99.90;;;;;;4966659;28;20027;-79
2023/03/16 07:29:48;;;;;;;20.92;9.98;;;1.70;99.90;;;;;;4967442;28;20098;-78
2023/03/16 07:32:14;;;;;;;20.73;11.05;;;1.70;99.90;;;;;;4969141;28;20106;-77
2023/03/16 07:34:40;;;;;;;22.08;11.52;;;1.80;99.90;;;;;;4966815;28;20054;-78
2023/03/16 07:37:07;;;;;;;20.95;10.95;;;1.80;99.90;;;;;;4966427;28;20023;-77
2023/03/16 07:39:34;;;;;;;22.25;11.52;;;1.90;99.90;;;;;;4967307;28;20050;-79
2023/03/16 07:42:00;;;;;;;22.70;11.73;;;1.90;99.90;;;;;;4964666;28;20019;-78
2023/03/16 07:44:26;;;;;;;25.17;11.80;;;2.00;99.90;;;;;;4966391;28;20039;-78
2023/03/16 07:46:52;;;;;;;30.05;12.02;;;2.00;99.90;;;;;;4966629;28;20403;-77
2023/03/16 07:49:17;;;;;;;21.48;11.75;;;2.00;99.90;;;;;;4966148;28;20070;-78
2023/03/16 07:51:43;;;;;;;19.90;11.65;;;2.10;99.90;;;;;;4962494;28;20042;-78
2023/03/16 07:54:09;;;;;;;19.10;11.50;;;2.10;99.90;;;;;;4965120;28;20480;-77
2023/03/16 07:56:35;;;;;;;21.73;11.73;;;2.10;99.90;;;;;;4964337;28;20531;-76
2023/03/16 07:59:01;;;;;;;22.50;12.70;;;2.20;99.90;;;;;;4968848;28;20110;-77
2023/03/16 08:01:27;;;;;;;20.55;11.63;;;2.20;99.90;;;;;;4963978;28;20113;-76
2023/03/16 08:03:52;;;;;;;22.27;12.35;;;2.20;99.90;;;;;;4966231;28;20039;-78
2023/03/16 08:06:20;;;;;;;23.95;12.27;;;2.20;99.90;;;;;;4967330;28;20506;-76
2023/03/16 08:08:46;;;;;;;21.25;12.25;;;2.20;99.90;;;;;;4964509;28;20110;-78
2023/03/16 08:11:12;;;;;;;21.67;12.70;;;2.30;99.90;;;;;;4964494;28;20030;-77
2023/03/16 08:13:38;;;;;;;18.98;10.93;;;2.40;99.90;;;;;;4961895;28;20035;-77
2023/03/16 08:16:04;;;;;;;21.77;11.82;;;2.40;99.90;;;;;;4966249;28;20463;-78
2023/03/16 08:18:30;;;;;;;20.10;12.85;;;2.50;99.90;;;;;;4966212;28;20039;-77
2023/03/16 08:20:57;;;;;;;18.27;11.60;;;2.60;99.90;;;;;;4964184;28;20499;-77
2023/03/16 08:23:24;;;;;;;20.77;11.45;;;2.60;99.90;;;;;;4964355;28;20106;-77
2023/03/16 08:25:55;;;;;;;22.80;12.82;;;2.60;99.90;;;;;;4980178;28;20109;-77
2023/03/16 08:28:21;;;;;;;22.38;13.13;;;2.60;99.90;;;;;;4965131;28;20035;-77
2023/03/16 08:30:49;;;;;;;23.48;12.75;;;2.70;99.90;;;;;;4960400;28;20800;-78
2023/03/16 08:33:16;;;;;;;23.00;12.18;;;2.80;99.90;;;;;;4980107;28;20691;-78
2023/03/16 08:35:43;;;;;;;21.52;11.80;;;2.70;99.90;;;;;;4966054;28;20480;-77
2023/03/16 08:38:10;;;;;;;23.10;11.25;;;2.80;99.90;;;;;;4964141;28;20038;-78
2023/03/16 08:40:36;;;;;;;24.42;11.70;;;2.90;99.90;;;;;;4966395;28;20069;-78
2023/03/16 08:43:03;;;;;;;19.42;11.43;;;2.90;99.90;;;;;;4978839;28;20037;-78
2023/03/16 08:45:29;;;;;;;18.88;10.85;;;3.10;99.90;;;;;;4963008;28;20559;-78
2023/03/16 08:47:55;;;;;;;22.90;12.25;;;3.20;99.90;;;;;;4966117;28;20056;-78
2023/03/16 08:50:21;;;;;;;23.15;10.93;;;3.30;99.90;;;;;;4967021;28;20422;-78
2023/03/16 08:52:47;;;;;;;29.27;11.25;;;3.40;99.90;;;;;;4965827;28;20070;-78
2023/03/16 08:55:14;;;;;;;15.05;10.85;;;3.50;99.90;;;;;;4965068;28;20517;-78
2023/03/16 08:57:40;;;;;;;17.88;10.77;;;3.50;99.90;;;;;;4967643;28;20037;-77
2023/03/16 09:00:12;;;;;;;17.55;11.05;;;3.60;99.90;;;;;;4961946;28;20015;-78
2023/03/16 09:02:39;;;;;;;21.85;11.25;;;3.70;99.90;;;;;;4965739;28;20505;-78
2023/03/16 09:05:09;;;;;;;24.73;11.00;;;3.80;99.90;;;;;;4964562;28;20033;-78
2023/03/16 09:07:36;;;;;;;21.42;11.88;;;3.90;99.90;;;;;;4963893;28;20027;-79
2023/03/16 09:10:04;;;;;;;21.85;12.40;;;3.90;99.90;;;;;;4959879;28;20545;-78
2023/03/16 09:12:31;;;;;;;22.77;11.60;;;4.00;99.90;;;;;;4967209;28;20331;-77
2023/03/16 09:14:57;;;;;;;20.02;10.65;;;4.20;99.90;;;;;;4967487;28;20495;-78
2023/03/16 09:17:23;;;;;;;19.50;11.05;;;4.20;99.90;;;;;;4965945;28;20023;-78
2023/03/16 09:19:49;;;;;;;20.42;10.38;;;4.40;99.90;;;;;;4953930;28;20135;-79
2023/03/16 09:22:15;;;;;;;20.50;10.77;;;4.50;99.90;;;;;;4964936;28;20019;-79
2023/03/16 09:24:41;;;;;;;16.85;10.13;;;4.60;99.90;;;;;;4962467;28;20110;-78
2023/03/16 09:27:07;;;;;;;22.42;11.70;;;4.80;99.90;;;;;;4966849;28;20181;-79
2023/03/16 09:29:33;;;;;;;18.48;10.85;;;5.00;99.90;;;;;;4960413;28;20926;-79
2023/03/16 09:31:58;;;;;;;15.57;9.10;;;5.10;99.90;;;;;;4960655;28;20546;-80
2023/03/16 09:34:24;;;;;;;15.95;10.02;;;5.20;99.90;;;;;;4982800;23;20058;-75
2023/03/16 09:36:50;;;;;;;17.58;8.63;;;5.40;99.90;;;;;;4974146;28;20408;-75
2023/03/16 09:39:16;;;;;;;14.63;8.70;;;5.50;99.90;;;;;;4968353;28;20034;-77
2023/03/16 09:42:20;;;;;;;14.70;7.72;;;5.70;99.90;;;;;;4967549;28;20031;-77
2023/03/16 09:45:04;;;;;;;16.13;8.65;;;5.80;99.90;;;;;;4970445;28;20054;-76
2023/03/16 09:47:35;;;;;;;13.73;7.45;;;6.00;99.90;;;;;;4967872;28;20031;-78
2023/03/16 09:50:07;;;;;;;14.05;7.20;;;6.20;99.90;;;;;;4968435;28;20046;-77
2023/03/16 09:52:57;;;;;;;8.45;5.63;;;6.30;99.90;;;;;;4967426;28;20037;-75
2023/03/16 09:55:26;;;;;;;4.40;2.40;;;6.40;99.90;;;;;;4965098;28;20496;-76
2023/03/16 09:57:54;;;;;;;2.35;1.55;;;6.60;99.90;;;;;;4967402;28;20502;-78
2023/03/16 10:00:24;;;;;;;5.55;1.42;;;6.70;99.90;;;;;;4972698;28;20345;-76
2023/03/16 10:03:14;;;;;;;3.80;2.10;;;6.90;99.90;;;;;;4967900;28;20101;-77
2023/03/16 10:05:40;;;;;;;6.68;2.38;;;7.10;99.90;;;;;;4969033;28;20027;-76
2023/03/16 10:08:14;;;;;;;4.55;2.10;;;7.30;99.90;;;;;;4974209;28;20038;-76
2023/03/16 10:10:55;;;;;;;3.47;1.42;;;7.40;99.90;;;;;;4969472;28;20488;-76
2023/03/16 10:13:45;;;;;;;4.80;1.40;;;7.60;99.90;;;;;;4953958;28;20023;-76
2023/03/16 10:16:18;;;;;;;5.00;1.98;;;7.80;99.90;;;;;;4955254;29;20098;-76
2023/03/16 10:18:47;;;;;;;2.83;1.25;;;8.00;99.90;;;;;;4960696;28;20018;-77
2023/03/16 10:21:17;;;;;;;2.38;1.42;;;8.00;99.90;;;;;;4978143;28;20154;-77
2023/03/16 10:23:45;;;;;;;2.35;1.40;;;8.10;99.70;;;;;;4975323;28;20054;-76
2023/03/16 10:26:21;;;;;;;4.70;1.60;;;8.20;99.80;;;;;;4975217;28;20380;-80
2023/03/16 10:28:47;;;;;;;1.85;1.30;;;8.30;98.80;;;;;;4980529;28;20074;-77
2023/03/16 10:31:18;;;;;;;3.92;1.67;;;8.40;98.30;;;;;;4986602;28;20037;-76
2023/03/16 10:33:44;;;;;;;3.40;1.63;;;8.50;98.00;;;;;;4977066;28;20092;-76
2023/03/16 10:36:18;;;;;;;4.38;1.70;;;8.50;98.00;;;;;;4974260;28;20098;-76
2023/03/16 10:39:10;;;;;;;3.17;2.00;;;8.50;97.20;;;;;;4984699;28;20496;-77
2023/03/16 10:41:39;;;;;;;3.95;1.60;;;8.60;96.10;;;;;;4973040;28;20034;-77
2023/03/16 10:44:15;;;;;;;3.35;1.50;;;8.70;96.50;;;;;;4969249;28;20115;-78
2023/03/16 10:46:52;;;;;;;5.00;1.60;;;8.80;95.30;;;;;;4975437;28;20042;-78
2023/03/16 10:49:26;;;;;;;1.92;1.30;;;8.80;94.90;;;;;;4974619;28;20027;-77
2023/03/16 10:51:59;;;;;;;3.03;1.38;;;8.90;95.30;;;;;;4979083;28;20039;-77
2023/03/16 10:54:25;;;;;;;4.35;1.75;;;8.90;95.20;;;;;;4977996;28;20066;-77
2023/03/16 10:56:50;;;;;;;3.38;1.42;;;9.00;94.60;;;;;;4980794;28;20108;-77
2023/03/16 10:59:33;;;;;;;5.05;1.70;;;9.00;93.80;;;;;;4975254;28;20031;-77
2023/03/16 11:02:02;;;;;;;2.20;1.40;;;9.10;93.10;;;;;;4979610;28;20027;-77
2023/03/16 11:04:32;;;;;;;3.92;1.70;;;9.20;94.30;;;;;;4979692;28;20078;-77
2023/03/16 11:06:58;;;;;;;3.92;1.63;;;9.20;93.70;;;;;;4974607;28;20033;-83
2023/03/16 11:09:31;;;;;;;4.50;1.42;;;9.20;92.20;;;;;;4982635;28;20030;-79
2023/03/16 11:11:58;;;;;;;2.35;1.27;;;9.30;91.50;;;;;;4979102;28;20030;-78
2023/03/16 11:14:28;;;;;;;2.83;1.52;;;9.20;91.40;;;;;;4971535;28;20038;-80
2023/03/16 11:17:03;;;;;;;2.60;1.40;;;9.30;91.30;;;;;;4971438;28;20034;-80
2023/03/16 11:19:33;;;;;;;4.85;1.73;;;9.30;91.30;;;;;;4973729;28;20093;-78
2023/03/16 11:22:02;;;;;;;4.90;1.90;;;9.30;91.60;;;;;;4973945;28;20027;-79
2023/03/16 11:24:34;;;;;;;4.13;2.10;;;9.30;91.00;;;;;;4980083;28;20042;-78
2023/03/16 11:27:04;;;;;;;3.17;1.80;;;9.40;91.20;;;;;;4975229;28;20030;-79
2023/03/16 11:29:52;;;;;;;4.50;2.08;;;9.40;91.20;;;;;;4979986;28;20046;-78
2023/03/16 11:32:24;;;;;;;3.50;1.83;;;9.40;90.90;;;;;;4972411;28;20031;-82
2023/03/16 11:34:52;;;;;;;3.15;1.85;;;9.50;90.10;;;;;;4972857;28;20022;-80
2023/03/16 11:37:20;;;;;;;5.65;2.38;;;9.60;90.50;;;;;;4976124;28;20026;-79
2023/03/16 11:39:55;;;;;;;3.97;2.33;;;9.60;90.60;;;;;;4976915;28;20019;-78
2023/03/16 11:42:40;;;;;;;4.07;1.95;;;9.60;90.10;;;;;;4973216;28;20121;-78
2023/03/16 11:45:49;;;;;;;3.42;1.90;;;9.70;89.10;;;;;;4977582;28;20026;-79
2023/03/16 11:48:40;;;;;;;3.17;1.73;;;9.80;86.80;;;;;;4962211;28;20031;-78
2023/03/16 11:51:35;;;;;;;6.97;1.92;;;9.80;87.00;;;;;;4978679;28;20023;-79
2023/03/16 11:54:08;;;;;;;2.97;1.63;;;9.80;87.30;;;;;;4982076;28;20043;-78
2023/03/16 11:56:41;;;;;;;2.58;1.52;;;9.80;85.60;;;;;;4975812;28;20034;-78
2023/03/16 11:59:28;;;;;;;4.45;2.08;;;9.80;87.70;;;;;;4973898;28;20029;-78
2023/03/16 12:02:19;;;;;;;4.57;1.92;;;9.80;86.30;;;;;;4991159;28;20026;-77
2023/03/16 12:04:58;;;;;;;7.80;2.35;;;9.90;86.10;;;;;;4978003;28;20038;-77
2023/03/16 12:07:34;;;;;;;4.50;2.22;;;9.90;85.70;;;;;;4976987;28;20141;-77
2023/03/16 12:10:42;;;;;;;4.22;2.10;;;9.90;84.30;;;;;;4974642;28;20510;-76
2023/03/16 12:13:51;;;;;;;4.43;2.42;;;9.90;85.60;;;;;;4974245;28;20451;-75
2023/03/16 12:16:25;;;;;;;5.78;1.80;;;10.00;85.20;;;;;;4975308;28;20098;-77
2023/03/16 12:18:58;;;;;;;2.75;1.90;;;10.10;84.90;;;;;;4973579;28;20027;-74
2023/03/16 12:21:35;;;;;;;3.65;2.10;;;10.10;84.30;;;;;;4974599;28;20014;-74
2023/03/16 12:24:08;;;;;;;3.42;2.03;;;10.10;83.60;;;;;;4974795;28;20031;-74
2023/03/16 12:26:40;;;;;;;3.42;1.70;;;10.10;82.50;;;;;;4999967;28;20030;-74
2023/03/16 12:29:32;;;;;;;4.03;1.77;;;10.10;82.60;;;;;;4994243;28;20110;-74
2023/03/16 12:31:58;;;;;;;3.45;2.08;;;10.20;82.00;;;;;;4991558;28;20506;-74
2023/03/16 12:34:52;;;;;;;3.38;2.33;;;10.20;82.10;;;;;;4992576;28;20049;-74
2023/03/16 12:37:36;;;;;;;3.92;2.20;;;10.20;82.70;;;;;;4976753;28;20034;-74
2023/03/16 12:40:07;;;;;;;;;;;10.20;81.80;;;;;;4973570;28;20390;-74
2023/03/16 12:43:04;;;;;;;4.07;1.95;;;10.20;81.00;;;;;;4972737;28;19906;-74
2023/03/16 12:46:06;;;;;;;3.38;1.40;;;10.20;80.40;;;;;;4973357;28;20031;-74
2023/03/16 12:48:57;;;;;;;3.70;1.60;;;10.30;79.90;;;;;;4971931;28;20090;-74
2023/03/16 12:51:59;;;;;;;3.05;1.42;;;10.20;80.30;;;;;;4983083;28;20035;-74
2023/03/16 12:54:25;;;;;;;2.33;1.65;;;10.30;80.80;;;;;;4972381;28;20499;-74
2023/03/16 12:56:55;;;;;;;7.25;1.77;;;10.30;80.40;;;;;;4976869;28;20049;-73
2023/03/16 12:59:24;;;;;;;2.20;1.33;;;10.30;80.00;;;;;;4975123;28;20030;-74